UHMA 250930Z 12006G11MPS 9999 SCT007 11/10 Q1009 R02/////// NOSIG RMK MID 11007G11MPS END R02/11009G12MPS MT OBSC QFE753/1004
QNH:(hPa/inHg/mmHg)1009 / 29.8 / 757
QFE:(hPa/inHg/mmHg)1002 / 29.58 / 751
Temperature11
Dew Point10
Visibility> 10000
Weather
Cloud CoverSCT (700);
Transition Height1600 m./5500 ft.
Transition LevelFL80
SQUAWK